createdAt,value
2022-11-02T00:00:15.353Z,9.53
2022-11-02T00:01:22.449Z,9.50
2022-11-02T00:02:25.537Z,9.49
2022-11-02T00:03:29.524Z,9.45
2022-11-02T00:04:32.438Z,9.43
2022-11-02T00:05:36.352Z,9.41
2022-11-02T00:06:39.213Z,9.38
2022-11-02T00:07:43.470Z,9.37
2022-11-02T00:08:46.450Z,9.36
2022-11-02T00:09:50.241Z,9.35
2022-11-02T00:10:54.443Z,9.34
2022-11-02T00:11:58.743Z,9.35
2022-11-02T00:13:02.879Z,9.33
2022-11-02T00:14:06.020Z,9.33
2022-11-02T00:15:11.130Z,9.32
2022-11-02T00:16:16.021Z,9.32
2022-11-02T00:17:19.969Z,9.31
2022-11-02T00:18:22.870Z,9.30
2022-11-02T00:19:26.851Z,9.29
2022-11-02T00:20:29.800Z,9.27
2022-11-02T00:21:33.919Z,9.25
2022-11-02T00:22:37.079Z,9.24
2022-11-02T00:23:42.171Z,9.23
2022-11-02T00:24:44.970Z,9.22
2022-11-02T00:25:50.645Z,9.21
2022-11-02T00:26:53.787Z,9.19
2022-11-02T00:27:59.133Z,9.19
2022-11-02T00:29:02.119Z,9.19
2022-11-02T00:30:06.582Z,9.17
2022-11-02T00:31:09.532Z,9.17
2022-11-02T00:32:13.381Z,9.14
2022-11-02T00:33:16.328Z,9.13
2022-11-02T00:34:21.261Z,9.10
2022-11-02T00:35:24.081Z,9.08
2022-11-02T00:36:28.351Z,9.06
2022-11-02T00:37:31.134Z,9.04
2022-11-02T00:38:35.023Z,9.01
2022-11-02T00:39:37.870Z,9.00
2022-11-02T00:40:41.792Z,8.97
2022-11-02T00:41:44.597Z,8.94
2022-11-02T00:42:48.475Z,8.91
2022-11-02T00:43:53.101Z,8.86
2022-11-02T00:44:56.980Z,8.84
2022-11-02T00:45:59.761Z,8.81
2022-11-02T00:47:03.723Z,8.77
2022-11-02T00:48:07.225Z,8.78
2022-11-02T00:49:11.422Z,8.76
2022-11-02T00:50:14.288Z,8.74
2022-11-02T00:51:18.179Z,8.71
2022-11-02T00:52:21.430Z,8.69
2022-11-02T00:53:28.502Z,8.66
2022-11-02T00:54:31.332Z,8.63
2022-11-02T00:55:36.463Z,8.59
2022-11-02T00:56:39.802Z,8.56
2022-11-02T00:57:44.550Z,8.53
2022-11-02T00:58:47.371Z,8.53
2022-11-02T00:59:52.671Z,8.52
2022-11-02T01:00:56.821Z,8.52
2022-11-02T01:02:00.800Z,8.52
2022-11-02T01:03:03.998Z,8.54
2022-11-02T01:04:08.530Z,8.55
2022-11-02T01:05:11.936Z,8.57
2022-11-02T01:06:17.001Z,8.58
2022-11-02T01:07:20.091Z,8.61
2022-11-02T01:08:24.218Z,8.65
2022-11-02T01:09:27.079Z,8.69
2022-11-02T01:10:31.259Z,8.73
2022-11-02T01:11:36.392Z,8.78
2022-11-02T01:12:40.490Z,8.81
2022-11-02T01:13:43.639Z,8.86
2022-11-02T01:14:47.932Z,8.91
2022-11-02T01:15:52.183Z,8.92
2022-11-02T01:16:58.112Z,8.97
2022-11-02T01:18:01.352Z,8.97
2022-11-02T01:19:05.438Z,8.97
2022-11-02T01:20:10.058Z,8.97
2022-11-02T01:21:13.963Z,8.97
2022-11-02T01:22:17.853Z,8.98
2022-11-02T01:23:20.681Z,8.98
2022-11-02T01:24:24.857Z,8.99
2022-11-02T01:25:27.672Z,8.99
2022-11-02T01:26:31.569Z,9.00
2022-11-02T01:27:34.370Z,9.04
2022-11-02T01:28:38.493Z,9.05
2022-11-02T01:29:41.380Z,9.08
2022-11-02T01:30:45.450Z,9.12
2022-11-02T01:31:50.179Z,9.16
2022-11-02T01:32:54.184Z,9.19
2022-11-02T01:33:57.011Z,9.21
2022-11-02T01:35:00.940Z,9.25
2022-11-02T01:36:04.832Z,9.27
2022-11-02T01:37:08.673Z,9.29
2022-11-02T01:38:11.474Z,9.30
2022-11-02T01:39:15.448Z,9.31
2022-11-02T01:40:18.264Z,9.32
2022-11-02T01:41:22.194Z,9.34
2022-11-02T01:42:28.170Z,9.37
2022-11-02T01:43:34.630Z,9.39
2022-11-02T01:44:37.409Z,9.41
2022-11-02T01:45:41.570Z,9.43
2022-11-02T01:46:46.179Z,9.46
2022-11-02T01:47:53.506Z,9.47
2022-11-02T01:48:59.075Z,9.48
2022-11-02T01:50:06.983Z,9.48
2022-11-02T01:51:11.518Z,9.49
2022-11-02T01:52:17.952Z,9.48
2022-11-02T01:53:20.823Z,9.47
2022-11-02T01:54:27.814Z,9.46
2022-11-02T01:55:32.145Z,9.43
2022-11-02T01:56:37.154Z,9.41
2022-11-02T01:57:42.235Z,9.37
2022-11-02T01:58:48.233Z,9.33
2022-11-02T01:59:53.464Z,9.30
2022-11-02T02:00:57.826Z,9.25
2022-11-02T02:02:01.549Z,9.20
2022-11-02T02:03:10.162Z,9.13
2022-11-02T02:04:13.783Z,9.10
2022-11-02T02:05:18.531Z,9.04
2022-11-02T02:06:21.352Z,8.98
2022-11-02T02:07:27.609Z,8.90
2022-11-02T02:08:30.800Z,8.86
2022-11-02T02:09:34.945Z,8.84
2022-11-02T02:10:37.946Z,8.79
2022-11-02T02:11:43.145Z,8.75
2022-11-02T02:12:46.086Z,8.72
2022-11-02T02:13:54.790Z,8.68
2022-11-02T02:14:58.075Z,8.65
2022-11-02T02:16:04.946Z,8.60
2022-11-02T02:17:18.744Z,8.57
2022-11-02T02:18:27.784Z,8.53
2022-11-02T02:19:39.793Z,8.50
2022-11-02T02:21:00.583Z,8.46
2022-11-02T02:22:28.004Z,8.40
2022-11-02T02:23:42.804Z,8.33
2022-11-02T02:24:50.248Z,8.27
2022-11-02T02:26:29.962Z,8.21
2022-11-02T02:27:47.403Z,8.12
2022-11-02T02:28:54.375Z,8.04
2022-11-02T02:30:05.051Z,8.00
2022-11-02T02:31:13.264Z,7.93
2022-11-02T02:32:20.020Z,7.87
2022-11-02T02:33:26.856Z,7.82
2022-11-02T02:34:35.527Z,7.78
2022-11-02T02:35:42.047Z,7.73
2022-11-02T02:36:51.597Z,7.67
2022-11-02T02:37:56.146Z,7.64
2022-11-02T02:39:04.044Z,7.56
2022-11-02T02:40:09.844Z,7.47
2022-11-02T02:41:19.795Z,7.41
2022-11-02T02:42:24.596Z,7.35
2022-11-02T02:43:35.046Z,7.29
2022-11-02T02:44:39.072Z,7.27
2022-11-02T02:45:45.988Z,7.24
2022-11-02T02:46:56.233Z,7.19
2022-11-02T02:48:03.993Z,7.17
2022-11-02T02:49:08.395Z,7.16
2022-11-02T02:50:16.364Z,7.18
2022-11-02T02:51:22.266Z,7.20
2022-11-02T02:52:28.825Z,7.21
2022-11-02T02:53:36.726Z,7.18
2022-11-02T02:54:42.519Z,7.16
2022-11-02T02:55:47.080Z,7.13
2022-11-02T02:56:55.505Z,7.09
2022-11-02T02:57:58.749Z,7.04
2022-11-02T02:59:06.923Z,7.00
2022-11-02T03:00:14.114Z,6.94
2022-11-02T03:01:18.824Z,6.91
2022-11-02T03:02:23.831Z,6.87
2022-11-02T03:03:28.993Z,6.85
2022-11-02T03:04:31.917Z,6.79
2022-11-02T03:05:37.517Z,6.75
2022-11-02T03:06:48.628Z,6.70
2022-11-02T03:07:52.774Z,6.65
2022-11-02T03:09:03.275Z,6.60
2022-11-02T03:10:12.195Z,6.51
2022-11-02T03:11:16.603Z,6.47
2022-11-02T03:12:29.533Z,6.43
2022-11-02T03:13:40.196Z,6.37
2022-11-02T03:14:55.876Z,6.32
2022-11-02T03:16:04.084Z,6.25
2022-11-02T03:17:16.765Z,6.19
2022-11-02T03:18:30.930Z,6.15
2022-11-02T03:19:42.665Z,6.12
2022-11-02T03:20:55.546Z,6.10
2022-11-02T03:22:02.302Z,6.05
2022-11-02T03:23:13.394Z,5.99
2022-11-02T03:24:20.756Z,5.93
2022-11-02T03:25:29.470Z,5.90
2022-11-02T03:26:36.382Z,5.85
2022-11-02T03:27:41.088Z,5.83
2022-11-02T03:28:55.670Z,5.81
2022-11-02T03:30:04.721Z,5.80
2022-11-02T03:31:11.990Z,5.80
2022-11-02T03:32:21.776Z,5.81
2022-11-02T03:33:29.559Z,5.81
2022-11-02T03:34:38.126Z,5.82
2022-11-02T03:35:45.085Z,5.83
2022-11-02T03:36:51.522Z,5.85
2022-11-02T03:38:00.365Z,5.87
2022-11-02T03:39:06.994Z,5.89
2022-11-02T03:40:16.225Z,5.90
2022-11-02T03:41:22.533Z,5.90
2022-11-02T03:42:28.541Z,5.92
2022-11-02T03:43:34.457Z,5.95
2022-11-02T03:44:39.115Z,6.00
2022-11-02T03:45:49.215Z,6.04
2022-11-02T03:46:55.915Z,6.08
2022-11-02T03:48:03.488Z,6.11
2022-11-02T03:49:08.742Z,6.16
2022-11-02T03:50:16.685Z,6.21
2022-11-02T03:51:21.743Z,6.26
2022-11-02T03:52:29.714Z,6.33
2022-11-02T03:53:36.304Z,6.39
2022-11-02T03:54:44.137Z,6.44
2022-11-02T03:55:49.455Z,6.50
2022-11-02T03:56:55.055Z,6.55
2022-11-02T03:57:59.305Z,6.59
2022-11-02T03:59:06.458Z,6.66
2022-11-02T04:00:11.516Z,6.73
2022-11-02T04:01:21.103Z,6.78
2022-11-02T04:02:24.936Z,6.83
2022-11-02T04:03:29.732Z,6.86
2022-11-02T04:04:32.565Z,6.89
2022-11-02T04:05:38.169Z,6.94
2022-11-02T04:06:48.816Z,6.94
2022-11-02T04:08:12.954Z,6.96
2022-11-02T04:09:16.974Z,6.96
2022-11-02T04:10:20.044Z,6.96
2022-11-02T04:11:41.394Z,6.96
2022-11-02T04:13:10.261Z,6.93
2022-11-02T04:14:31.341Z,6.87
2022-11-02T04:15:36.936Z,6.85
2022-11-02T04:16:41.685Z,6.84
2022-11-02T04:18:08.578Z,6.81
2022-11-02T04:19:30.078Z,6.78
2022-11-02T04:20:43.356Z,6.74
2022-11-02T04:22:00.968Z,6.73
2022-11-02T04:23:23.033Z,6.70
2022-11-02T04:24:46.425Z,6.65
2022-11-02T04:25:54.644Z,6.62
2022-11-02T04:27:10.511Z,6.62
2022-11-02T04:28:14.419Z,6.62
2022-11-02T04:29:31.444Z,6.60
2022-11-02T04:30:35.337Z,6.56
2022-11-02T04:31:38.778Z,6.51
2022-11-02T04:33:02.191Z,6.47
2022-11-02T04:34:09.598Z,6.40
2022-11-02T04:35:13.001Z,6.35
2022-11-02T04:36:17.548Z,6.30
2022-11-02T04:37:40.948Z,6.23
2022-11-02T04:38:43.825Z,6.17
2022-11-02T04:40:00.651Z,6.13
2022-11-02T04:41:21.987Z,6.12
2022-11-02T04:42:28.217Z,6.10
2022-11-02T04:43:35.104Z,6.08
2022-11-02T04:44:39.535Z,6.08
2022-11-02T04:45:50.166Z,6.06
2022-11-02T04:46:54.163Z,6.05
2022-11-02T04:48:03.228Z,6.02
2022-11-02T04:49:08.323Z,5.99
2022-11-02T04:50:13.084Z,5.96
2022-11-02T04:51:20.731Z,5.93
2022-11-02T04:52:23.795Z,5.88
2022-11-02T04:53:28.725Z,5.84
2022-11-02T04:54:31.680Z,5.82
2022-11-02T04:55:39.000Z,5.80
2022-11-02T04:56:42.836Z,5.78
2022-11-02T04:57:46.872Z,5.77
2022-11-02T04:58:50.877Z,5.76
2022-11-02T04:59:54.767Z,5.73
2022-11-02T05:00:57.557Z,5.72
2022-11-02T05:02:01.737Z,5.68
2022-11-02T05:03:09.595Z,5.64
2022-11-02T05:04:17.424Z,5.60
2022-11-02T05:05:20.925Z,5.59
2022-11-02T05:06:27.444Z,5.56
2022-11-02T05:07:31.338Z,5.53
2022-11-02T05:08:35.346Z,5.46
2022-11-02T05:09:38.335Z,5.41
2022-11-02T05:10:42.603Z,5.34
2022-11-02T05:11:45.766Z,5.30
2022-11-02T05:12:49.975Z,5.27
2022-11-02T05:13:53.516Z,5.25
2022-11-02T05:14:57.358Z,5.25
2022-11-02T05:16:00.504Z,5.25
2022-11-02T05:17:06.452Z,5.26
2022-11-02T05:18:17.696Z,5.27
2022-11-02T05:19:22.954Z,5.26
2022-11-02T05:20:25.902Z,5.23
2022-11-02T05:21:30.761Z,5.21
2022-11-02T05:22:34.274Z,5.21
2022-11-02T05:23:38.601Z,5.20
2022-11-02T05:24:41.734Z,5.21
2022-11-02T05:25:54.015Z,5.20
2022-11-02T05:26:58.105Z,5.19
2022-11-02T05:28:02.369Z,5.18
2022-11-02T05:29:06.414Z,5.18
2022-11-02T05:30:11.024Z,5.15
2022-11-02T05:31:15.261Z,5.13
2022-11-02T05:32:19.544Z,5.11
2022-11-02T05:33:30.282Z,5.08
2022-11-02T05:34:35.096Z,5.06
2022-11-02T05:35:39.043Z,5.05
2022-11-02T05:36:41.985Z,5.04
2022-11-02T05:37:45.988Z,5.07
2022-11-02T05:38:48.817Z,5.07
2022-11-02T05:39:52.903Z,5.08
2022-11-02T05:40:57.759Z,5.10
2022-11-02T05:42:04.841Z,5.12
2022-11-02T05:43:09.105Z,5.14
2022-11-02T05:44:14.037Z,5.15
2022-11-02T05:45:20.585Z,5.15
2022-11-02T05:46:28.322Z,5.16
2022-11-02T05:47:31.100Z,5.19
2022-11-02T05:48:36.414Z,5.20
2022-11-02T05:49:39.216Z,5.21
2022-11-02T05:50:43.024Z,5.22
2022-11-02T05:51:45.765Z,5.25
2022-11-02T05:52:49.553Z,5.27
2022-11-02T05:53:52.398Z,5.32
2022-11-02T05:54:56.274Z,5.36
2022-11-02T05:55:59.725Z,5.43
2022-11-02T05:57:03.833Z,5.46
2022-11-02T05:58:06.711Z,5.52
2022-11-02T05:59:11.621Z,5.57
2022-11-02T06:00:14.912Z,5.61
2022-11-02T06:01:18.815Z,5.65
2022-11-02T06:02:24.766Z,5.69
2022-11-02T06:03:28.718Z,5.76
2022-11-02T06:04:34.115Z,5.82
2022-11-02T06:05:37.070Z,5.87
2022-11-02T06:06:41.174Z,5.93
2022-11-02T06:07:44.015Z,6.00
2022-11-02T06:08:47.817Z,6.06
2022-11-02T06:09:50.567Z,6.14
2022-11-02T06:11:05.675Z,6.23
2022-11-02T06:12:20.164Z,6.30
2022-11-02T06:13:24.184Z,6.40
2022-11-02T06:14:43.212Z,6.48
2022-11-02T06:15:46.154Z,6.58
2022-11-02T06:16:50.050Z,6.67
2022-11-02T06:17:53.072Z,6.78
2022-11-02T06:18:57.153Z,6.88
2022-11-02T06:20:01.466Z,6.99
2022-11-02T06:21:05.648Z,7.09
2022-11-02T06:22:08.461Z,7.18
2022-11-02T06:23:14.413Z,7.29
2022-11-02T06:24:35.987Z,7.37
2022-11-02T06:25:54.137Z,7.47
2022-11-02T06:27:15.938Z,7.56
2022-11-02T06:28:35.948Z,7.66
2022-11-02T06:29:50.485Z,7.76
2022-11-02T06:31:11.522Z,7.85
2022-11-02T06:32:30.457Z,7.94
2022-11-02T06:33:46.180Z,8.02
2022-11-02T06:34:49.023Z,8.09
2022-11-02T06:35:55.651Z,8.14
2022-11-02T06:37:15.133Z,8.21
2022-11-02T06:38:36.113Z,8.27
2022-11-02T06:39:55.944Z,8.35
2022-11-02T06:41:11.815Z,8.42
2022-11-02T06:42:44.926Z,8.51
2022-11-02T06:44:06.273Z,8.63
2022-11-02T06:45:21.501Z,8.73
2022-11-02T06:46:40.445Z,8.85
2022-11-02T06:48:02.138Z,8.95
2022-11-02T06:49:05.975Z,9.04
2022-11-02T06:50:09.728Z,9.13
2022-11-02T06:51:15.044Z,9.22
2022-11-02T06:52:17.817Z,9.31
2022-11-02T06:53:21.636Z,9.38
2022-11-02T06:54:24.574Z,9.45
2022-11-02T06:55:28.423Z,9.52
2022-11-02T06:56:51.648Z,9.60
2022-11-02T06:57:55.025Z,9.67
2022-11-02T06:59:11.537Z,9.74
2022-11-02T07:00:31.785Z,9.82
2022-11-02T07:01:36.430Z,9.89
2022-11-02T07:02:59.968Z,9.97
2022-11-02T07:04:03.975Z,10.02
2022-11-02T07:05:21.537Z,10.08
2022-11-02T07:06:42.945Z,10.15
2022-11-02T07:08:01.600Z,10.22
2022-11-02T07:09:21.576Z,10.28
2022-11-02T07:10:43.108Z,10.34
2022-11-02T07:12:01.563Z,10.36
2022-11-02T07:13:20.695Z,10.38
2022-11-02T07:14:23.423Z,10.41
2022-11-02T07:15:28.324Z,10.43
2022-11-02T07:16:32.278Z,10.45
2022-11-02T07:17:35.173Z,10.47
2022-11-02T07:18:39.105Z,10.48
2022-11-02T07:19:41.974Z,10.47
2022-11-02T07:20:45.885Z,10.49
2022-11-02T07:21:50.137Z,10.51
2022-11-02T07:22:54.642Z,10.53
2022-11-02T07:23:57.609Z,10.57
2022-11-02T07:25:01.598Z,10.61
2022-11-02T07:26:05.344Z,10.66
2022-11-02T07:27:09.286Z,10.72
2022-11-02T07:28:12.212Z,10.76
2022-11-02T07:29:16.407Z,10.80
2022-11-02T07:30:19.402Z,10.84
2022-11-02T07:31:23.300Z,10.89
2022-11-02T07:32:27.336Z,10.94
2022-11-02T07:33:30.254Z,10.98
2022-11-02T07:34:34.328Z,11.01
2022-11-02T07:35:38.171Z,11.03
2022-11-02T07:36:40.946Z,11.03
2022-11-02T07:37:46.525Z,11.05
2022-11-02T07:38:49.374Z,11.05
2022-11-02T07:39:53.304Z,11.09
2022-11-02T07:40:56.134Z,11.12
2022-11-02T07:42:00.210Z,11.16
2022-11-02T07:43:04.613Z,11.17
2022-11-02T07:44:44.047Z,11.17
2022-11-02T07:45:47.826Z,11.17
2022-11-02T07:46:51.665Z,11.18
2022-11-02T07:47:55.485Z,11.18
2022-11-02T07:48:59.408Z,11.19
2022-11-02T07:50:03.665Z,11.19
2022-11-02T07:51:08.092Z,11.20
2022-11-02T07:52:11.917Z,11.20
2022-11-02T07:53:17.499Z,11.26
2022-11-02T07:54:21.460Z,11.29
2022-11-02T07:55:25.933Z,11.32
2022-11-02T07:56:29.897Z,11.35
2022-11-02T07:57:32.844Z,11.40
2022-11-02T07:58:36.885Z,11.44
2022-11-02T07:59:39.730Z,11.50
2022-11-02T08:00:44.125Z,11.56
2022-11-02T08:01:46.921Z,11.60
2022-11-02T08:02:51.597Z,11.64
2022-11-02T08:03:54.983Z,11.66
2022-11-02T08:04:58.786Z,11.68
2022-11-02T08:06:02.567Z,11.73
2022-11-02T08:07:06.427Z,11.77
2022-11-02T08:08:11.913Z,11.83
2022-11-02T08:09:17.177Z,11.86
2022-11-02T08:10:19.965Z,11.88
2022-11-02T08:11:23.849Z,11.91
2022-11-02T08:12:27.319Z,11.89
2022-11-02T08:13:32.700Z,11.89
2022-11-02T08:14:37.008Z,11.92
2022-11-02T08:15:39.945Z,11.94
2022-11-02T08:16:44.564Z,11.99
2022-11-02T08:17:47.283Z,12.06
2022-11-02T08:18:51.546Z,12.13
2022-11-02T08:19:54.437Z,12.18
2022-11-02T08:20:59.276Z,12.24
2022-11-02T08:22:02.080Z,12.33
2022-11-02T08:23:07.767Z,12.42
2022-11-02T08:24:10.617Z,12.49
2022-11-02T08:26:23.606Z,12.54
2022-11-02T08:27:27.406Z,12.60
2022-11-02T08:28:32.320Z,12.67
2022-11-02T08:29:37.126Z,12.71
2022-11-02T08:30:39.876Z,12.77
2022-11-02T08:31:43.674Z,12.81
2022-11-02T08:32:46.485Z,12.81
2022-11-02T08:33:50.499Z,12.84
2022-11-02T08:34:53.195Z,12.88
2022-11-02T08:36:03.305Z,12.92
2022-11-02T08:37:07.777Z,12.94
2022-11-02T08:38:11.859Z,12.98
2022-11-02T08:39:18.603Z,13.02
2022-11-02T08:40:24.957Z,13.07
2022-11-02T08:41:27.844Z,13.10
2022-11-02T08:42:31.740Z,13.11
2022-11-02T08:43:35.913Z,13.09
2022-11-02T08:44:42.483Z,13.14
2022-11-02T08:47:10.925Z,13.21
2022-11-02T08:48:13.982Z,13.23
2022-11-02T08:49:18.915Z,13.29
2022-11-02T08:50:22.164Z,13.33
2022-11-02T08:51:26.003Z,13.38
2022-11-02T08:52:28.793Z,13.42
2022-11-02T08:53:32.743Z,13.47
2022-11-02T08:54:35.523Z,13.52
2022-11-02T08:55:40.745Z,13.61
2022-11-02T08:56:44.572Z,13.72
2022-11-02T08:57:47.818Z,13.78
2022-11-02T08:58:51.604Z,13.86
2022-11-02T08:59:54.344Z,13.90
2022-11-02T09:00:58.176Z,13.94
2022-11-02T09:02:01.142Z,13.96
2022-11-02T09:03:06.975Z,13.99
2022-11-02T09:04:11.031Z,14.03
2022-11-02T09:05:18.986Z,14.06
2022-11-02T09:06:23.435Z,14.06
2022-11-02T09:07:28.980Z,14.10
2022-11-02T09:08:31.960Z,14.16
2022-11-02T09:09:35.845Z,14.24
2022-11-02T09:10:40.166Z,14.30
2022-11-02T09:11:43.914Z,14.34
2022-11-02T09:12:46.752Z,14.42
2022-11-02T09:13:54.256Z,14.48
2022-11-02T09:14:59.544Z,14.56
2022-11-02T09:16:03.515Z,14.65
2022-11-02T09:17:06.402Z,14.75
2022-11-02T09:18:10.592Z,14.85
2022-11-02T09:19:14.495Z,14.91
2022-11-02T09:20:18.016Z,14.96
2022-11-02T09:21:21.874Z,14.99
2022-11-02T09:22:24.669Z,15.04
2022-11-02T09:23:28.479Z,15.06
2022-11-02T09:24:31.281Z,15.05
2022-11-02T09:25:35.310Z,15.04
2022-11-02T09:26:40.716Z,15.04
2022-11-02T09:27:44.025Z,15.02
2022-11-02T09:28:48.153Z,14.98
2022-11-02T09:29:51.062Z,14.91
2022-11-02T09:30:54.937Z,14.79
2022-11-02T09:31:58.924Z,14.71
2022-11-02T09:33:03.840Z,14.62
2022-11-02T09:34:08.016Z,14.56
2022-11-02T09:35:15.426Z,14.49
2022-11-02T09:36:19.462Z,14.41
2022-11-02T09:37:22.396Z,14.35
2022-11-02T09:38:27.124Z,14.31
2022-11-02T09:39:30.014Z,14.30
2022-11-02T09:40:41.514Z,14.30
2022-11-02T09:41:51.102Z,14.31
2022-11-02T09:43:09.635Z,14.31
2022-11-02T09:44:16.584Z,14.28
2022-11-02T09:45:20.618Z,14.26
2022-11-02T09:46:27.285Z,14.28
2022-11-02T09:48:59.591Z,14.26
2022-11-02T09:50:03.905Z,14.27
2022-11-02T09:51:11.334Z,14.28
2022-11-02T09:52:26.577Z,14.30
2022-11-02T09:53:38.033Z,14.31
2022-11-02T09:54:44.019Z,14.31
2022-11-02T09:55:51.413Z,14.31
2022-11-02T09:56:59.936Z,14.31
2022-11-02T09:58:07.974Z,14.33
2022-11-02T09:59:15.387Z,14.36
2022-11-02T10:00:19.859Z,14.36
2022-11-02T10:01:35.856Z,14.38
2022-11-02T10:02:48.771Z,14.41
2022-11-02T10:04:09.692Z,14.46
2022-11-02T10:05:26.403Z,14.51
2022-11-02T10:06:30.764Z,14.56
2022-11-02T10:07:44.544Z,14.63
2022-11-02T10:08:54.064Z,14.70
2022-11-02T10:09:58.939Z,14.75
2022-11-02T10:11:13.083Z,14.82
2022-11-02T10:12:22.345Z,14.89
2022-11-02T10:13:33.575Z,14.98
2022-11-02T10:14:40.354Z,15.04
2022-11-02T10:15:48.069Z,15.13
2022-11-02T10:17:15.514Z,15.25
2022-11-02T10:18:20.186Z,15.32
2022-11-02T10:19:27.769Z,15.38
2022-11-02T10:20:38.014Z,15.48
2022-11-02T10:21:43.495Z,15.58
2022-11-02T10:22:47.834Z,15.64
2022-11-02T10:23:53.388Z,15.73
2022-11-02T10:24:57.420Z,15.82
2022-11-02T10:26:01.714Z,15.88
2022-11-02T10:27:14.062Z,15.93
2022-11-02T10:28:22.113Z,15.97
2022-11-02T10:29:38.854Z,15.99
2022-11-02T10:30:43.624Z,16.04
2022-11-02T10:31:48.802Z,16.09
2022-11-02T10:32:54.425Z,16.14
2022-11-02T10:33:58.393Z,16.17
2022-11-02T10:35:17.861Z,16.19
2022-11-02T10:36:35.322Z,16.20
2022-11-02T10:37:52.475Z,16.20
2022-11-02T10:39:06.514Z,16.24
2022-11-02T10:40:20.638Z,16.27
2022-11-02T10:41:45.752Z,16.26
2022-11-02T10:43:07.050Z,16.19
2022-11-02T10:44:23.657Z,16.17
2022-11-02T10:45:42.805Z,16.15
2022-11-02T10:46:57.802Z,16.13
2022-11-02T10:48:05.718Z,16.12
2022-11-02T10:49:15.081Z,16.09
2022-11-02T10:50:32.430Z,16.10
2022-11-02T10:51:35.283Z,16.14
2022-11-02T10:52:40.686Z,16.17
2022-11-02T10:53:46.085Z,16.17
2022-11-02T10:54:50.605Z,16.17
2022-11-02T10:55:59.838Z,16.15
2022-11-02T10:57:11.211Z,16.14
2022-11-02T10:58:17.742Z,16.14
2022-11-02T10:59:24.276Z,16.13
2022-11-02T11:00:29.812Z,16.12
2022-11-02T11:01:33.781Z,16.12
2022-11-02T11:02:36.415Z,16.15
2022-11-02T11:03:55.955Z,16.20
2022-11-02T11:05:14.180Z,16.22
2022-11-02T11:06:17.896Z,16.25
2022-11-02T11:07:25.552Z,16.26
2022-11-02T11:08:47.255Z,16.27
2022-11-02T11:09:52.486Z,16.27
2022-11-02T11:10:56.773Z,16.30
2022-11-02T11:12:01.875Z,16.32
2022-11-02T11:13:07.811Z,16.36
2022-11-02T11:16:51.304Z,16.44
2022-11-02T11:19:40.409Z,16.47
2022-11-02T11:20:44.757Z,16.48
2022-11-02T11:21:47.663Z,16.51
2022-11-02T11:23:09.243Z,16.53
2022-11-02T11:24:23.051Z,16.53
2022-11-02T11:25:28.233Z,16.54
2022-11-02T11:26:33.111Z,16.57
2022-11-02T11:27:45.295Z,16.61
2022-11-02T11:28:55.179Z,16.64
2022-11-02T11:30:00.276Z,16.65
2022-11-02T11:31:15.034Z,16.65
2022-11-02T11:32:20.326Z,16.65
2022-11-02T11:33:23.397Z,16.66
2022-11-02T11:34:28.683Z,16.68
2022-11-02T11:35:33.584Z,16.70
2022-11-02T11:36:37.881Z,16.72
2022-11-02T11:37:49.362Z,16.74
2022-11-02T11:38:54.155Z,16.78
2022-11-02T11:40:00.897Z,16.81
2022-11-02T11:41:07.895Z,16.82
2022-11-02T11:42:16.294Z,16.83
2022-11-02T11:43:20.215Z,16.88
2022-11-02T11:44:24.153Z,16.91
2022-11-02T11:45:28.644Z,16.95
2022-11-02T11:46:45.175Z,17.02
2022-11-02T11:47:53.197Z,17.02
2022-11-02T11:48:59.794Z,17.04
2022-11-02T11:50:21.325Z,17.10
2022-11-02T11:51:32.404Z,17.15
2022-11-02T11:52:36.445Z,17.14
2022-11-02T11:53:39.064Z,17.11
2022-11-02T11:54:54.372Z,17.07
2022-11-02T11:56:00.084Z,17.01
2022-11-02T11:57:24.845Z,16.96
2022-11-02T11:58:29.965Z,16.89
2022-11-02T11:59:46.065Z,16.86
2022-11-02T12:01:09.296Z,16.80
2022-11-02T12:02:25.407Z,16.74
2022-11-02T12:03:29.273Z,16.74
2022-11-02T12:04:33.862Z,16.75
2022-11-02T12:05:49.454Z,16.73
2022-11-02T12:06:58.531Z,16.67
2022-11-02T12:08:21.141Z,16.62
2022-11-02T12:09:29.245Z,16.55
2022-11-02T12:10:53.098Z,16.55
2022-11-02T12:12:03.342Z,16.58
2022-11-02T12:13:15.581Z,16.57
2022-11-02T12:14:31.918Z,16.60
2022-11-02T12:15:47.076Z,16.62
2022-11-02T12:17:05.774Z,16.65
2022-11-02T12:18:31.264Z,16.75
2022-11-02T12:19:48.074Z,16.83
2022-11-02T12:20:57.465Z,16.90
2022-11-02T12:22:07.264Z,16.96
2022-11-02T12:23:24.115Z,17.01
2022-11-02T12:24:49.088Z,17.09
2022-11-02T12:26:01.611Z,17.14
2022-11-02T12:27:22.065Z,17.23
2022-11-02T12:28:33.811Z,17.27
2022-11-02T12:30:04.380Z,17.32
2022-11-02T12:31:19.037Z,17.38
2022-11-02T12:32:34.712Z,17.45
2022-11-02T12:33:51.527Z,17.53
2022-11-02T12:35:27.701Z,17.62
2022-11-02T12:37:18.100Z,17.73
2022-11-02T12:38:48.261Z,17.95
2022-11-02T12:40:05.365Z,18.11
2022-11-02T12:41:10.866Z,18.21
2022-11-02T12:42:25.594Z,18.29
2022-11-02T12:43:44.600Z,18.31
2022-11-02T12:44:57.856Z,18.29
2022-11-02T12:46:05.055Z,18.28
2022-11-02T12:47:18.644Z,18.31
2022-11-02T12:48:27.217Z,18.34
2022-11-02T12:49:40.810Z,18.33
2022-11-02T12:50:55.788Z,18.35
2022-11-02T12:52:04.633Z,18.43
2022-11-02T12:53:19.857Z,18.50
2022-11-02T12:54:27.293Z,18.59
2022-11-02T12:55:38.163Z,18.68
2022-11-02T12:56:48.320Z,18.82
2022-11-02T12:57:55.120Z,19.00
2022-11-02T12:58:58.864Z,19.21
2022-11-02T13:00:05.933Z,19.40
2022-11-02T13:01:14.540Z,19.56
2022-11-02T13:02:21.403Z,19.67
2022-11-02T13:03:30.873Z,19.65
2022-11-02T13:04:40.949Z,19.67
2022-11-02T13:05:47.621Z,19.75
2022-11-02T13:06:53.027Z,19.82
2022-11-02T13:08:01.638Z,19.90
2022-11-02T13:09:09.886Z,19.99
2022-11-02T13:10:16.456Z,19.99
2022-11-02T13:11:24.144Z,19.99
2022-11-02T13:12:27.534Z,19.92
2022-11-02T13:13:36.724Z,19.80
2022-11-02T13:14:42.676Z,19.62
2022-11-02T13:15:47.175Z,19.51
2022-11-02T13:16:54.553Z,19.44
2022-11-02T13:18:00.214Z,19.38
2022-11-02T13:19:04.797Z,19.36
2022-11-02T13:20:16.564Z,19.34
2022-11-02T13:21:23.435Z,19.26
2022-11-02T13:22:30.926Z,19.08
2022-11-02T13:23:39.603Z,18.95
2022-11-02T13:24:46.995Z,18.81
2022-11-02T13:25:52.015Z,18.68
2022-11-02T13:26:57.522Z,18.66
2022-11-02T13:28:15.107Z,18.55
2022-11-02T13:29:22.875Z,18.55
2022-11-02T13:30:25.532Z,18.59
2022-11-02T13:31:31.993Z,18.60
2022-11-02T13:32:38.064Z,18.54
2022-11-02T13:33:45.143Z,18.57
2022-11-02T13:34:50.384Z,18.58
2022-11-02T13:35:54.584Z,18.64
2022-11-02T13:36:58.342Z,18.75
2022-11-02T13:38:05.924Z,18.81
2022-11-02T13:39:15.304Z,18.83
2022-11-02T13:40:24.476Z,18.84
2022-11-02T13:41:52.904Z,18.65
2022-11-02T13:43:32.947Z,18.45
2022-11-02T13:45:15.345Z,18.29
2022-11-02T13:46:34.716Z,18.14
2022-11-02T13:47:58.252Z,17.98
2022-11-02T13:49:04.511Z,17.82
2022-11-02T13:50:12.169Z,17.65
2022-11-02T13:51:25.223Z,17.48
2022-11-02T13:52:35.996Z,17.36
2022-11-02T13:53:41.226Z,17.25
2022-11-02T13:54:47.029Z,17.15
2022-11-02T13:55:54.491Z,17.08
2022-11-02T13:56:59.931Z,17.03
2022-11-02T13:58:03.002Z,17.06
2022-11-02T13:59:08.873Z,17.12
2022-11-02T14:00:30.271Z,17.19
2022-11-02T14:01:36.746Z,17.13
2022-11-02T14:02:42.091Z,17.08
2022-11-02T14:03:50.875Z,17.01
2022-11-02T14:04:54.600Z,16.99
2022-11-02T14:06:00.467Z,16.96
2022-11-02T14:07:07.323Z,16.90
2022-11-02T14:08:12.905Z,16.82
2022-11-02T14:09:28.431Z,16.76
2022-11-02T14:10:33.756Z,16.71
2022-11-02T14:11:48.484Z,16.67
2022-11-02T14:12:51.334Z,16.67
2022-11-02T14:14:16.165Z,16.73
2022-11-02T14:15:46.645Z,16.86
2022-11-02T14:18:31.757Z,16.84
2022-11-02T14:19:51.743Z,16.82
2022-11-02T14:20:55.454Z,16.75
2022-11-02T14:22:11.452Z,16.62
2022-11-02T14:23:39.870Z,16.52
2022-11-02T14:24:55.612Z,16.39
2022-11-02T14:26:00.611Z,16.33
2022-11-02T14:27:05.353Z,16.27
2022-11-02T14:28:32.463Z,16.25
2022-11-02T14:29:53.242Z,16.20
2022-11-02T14:30:59.601Z,16.12
2022-11-02T14:32:05.915Z,16.10
2022-11-02T14:33:30.444Z,16.07
2022-11-02T14:34:56.013Z,15.96
2022-11-02T14:36:01.902Z,15.86
2022-11-02T14:37:20.736Z,15.73
2022-11-02T14:38:58.975Z,15.63
2022-11-02T14:40:09.270Z,15.50
2022-11-02T14:41:24.252Z,15.39
2022-11-02T14:42:49.293Z,15.29
2022-11-02T14:44:21.385Z,15.15
2022-11-02T14:45:34.285Z,15.00
2022-11-02T14:46:51.345Z,14.87
2022-11-02T14:47:59.104Z,14.76
2022-11-02T14:49:04.424Z,14.67
2022-11-02T14:50:10.316Z,14.59
2022-11-02T14:51:18.504Z,14.52
2022-11-02T14:52:28.563Z,14.45
2022-11-02T14:53:33.556Z,14.41
2022-11-02T14:54:41.972Z,14.37
2022-11-02T14:55:53.700Z,14.32
2022-11-02T14:57:00.337Z,14.26
2022-11-02T14:58:10.929Z,14.19
2022-11-02T14:59:17.967Z,14.09
2022-11-02T15:00:23.896Z,13.98